sensor_id;sensor_type;location;lat;lon;timestamp;P1;durP1;ratioP1;P2;durP2;ratioP2
58727;SDS011;44505;43.240;0.070;2022-08-19T00:01:28;4.80;;;4.40;;
58727;SDS011;44505;43.240;0.070;2022-08-19T00:03:56;6.38;;;4.93;;
58727;SDS011;44505;43.240;0.070;2022-08-19T00:06:21;7.00;;;3.92;;
58727;SDS011;44505;43.240;0.070;2022-08-19T00:08:46;5.63;;;3.63;;
58727;SDS011;44505;43.240;0.070;2022-08-19T00:11:12;6.00;;;4.93;;
58727;SDS011;44505;43.240;0.070;2022-08-19T00:13:37;5.95;;;3.58;;
58727;SDS011;44505;43.240;0.070;2022-08-19T00:16:04;4.15;;;3.17;;
58727;SDS011;44505;43.240;0.070;2022-08-19T00:18:31;4.68;;;3.70;;
58727;SDS011;44505;43.240;0.070;2022-08-19T00:20:56;4.70;;;3.03;;
58727;SDS011;44505;43.240;0.070;2022-08-19T00:23:22;4.10;;;2.55;;
58727;SDS011;44505;43.240;0.070;2022-08-19T00:25:47;4.50;;;2.78;;
58727;SDS011;44505;43.240;0.070;2022-08-19T00:28:12;7.07;;;3.65;;
58727;SDS011;44505;43.240;0.070;2022-08-19T00:30:38;5.47;;;4.10;;
58727;SDS011;44505;43.240;0.070;2022-08-19T00:33:03;5.20;;;3.40;;
58727;SDS011;44505;43.240;0.070;2022-08-19T00:35:29;4.47;;;3.97;;
58727;SDS011;44505;43.240;0.070;2022-08-19T00:37:54;5.97;;;3.72;;
58727;SDS011;44505;43.240;0.070;2022-08-19T00:40:20;4.78;;;2.88;;
58727;SDS011;44505;43.240;0.070;2022-08-19T00:42:46;5.40;;;3.80;;
58727;SDS011;44505;43.240;0.070;2022-08-19T00:45:13;5.18;;;3.65;;
58727;SDS011;44505;43.240;0.070;2022-08-19T00:47:39;4.95;;;4.35;;
58727;SDS011;44505;43.240;0.070;2022-08-19T00:50:05;5.15;;;4.00;;
58727;SDS011;44505;43.240;0.070;2022-08-19T00:52:33;3.67;;;3.10;;
58727;SDS011;44505;43.240;0.070;2022-08-19T00:55:00;4.60;;;3.67;;
58727;SDS011;44505;43.240;0.070;2022-08-19T00:57:46;5.50;;;3.05;;
58727;SDS011;44505;43.240;0.070;2022-08-19T01:00:14;4.72;;;3.03;;
58727;SDS011;44505;43.240;0.070;2022-08-19T01:02:41;5.00;;;3.15;;
58727;SDS011;44505;43.240;0.070;2022-08-19T01:05:08;4.57;;;4.03;;
58727;SDS011;44505;43.240;0.070;2022-08-19T01:07:35;4.25;;;3.35;;
58727;SDS011;44505;43.240;0.070;2022-08-19T01:12:27;3.35;;;2.83;;
58727;SDS011;44505;43.240;0.070;2022-08-19T01:14:53;3.95;;;2.83;;
58727;SDS011;44505;43.240;0.070;2022-08-19T01:17:18;4.38;;;2.90;;
58727;SDS011;44505;43.240;0.070;2022-08-19T01:19:46;7.13;;;3.17;;
58727;SDS011;44505;43.240;0.070;2022-08-19T01:22:15;4.80;;;2.97;;
58727;SDS011;44505;43.240;0.070;2022-08-19T01:24:41;4.13;;;3.13;;
58727;SDS011;44505;43.240;0.070;2022-08-19T01:27:07;4.70;;;2.97;;
58727;SDS011;44505;43.240;0.070;2022-08-19T01:29:32;4.88;;;3.20;;
58727;SDS011;44505;43.240;0.070;2022-08-19T01:31:58;5.35;;;2.95;;
58727;SDS011;44505;43.240;0.070;2022-08-19T01:34:25;4.90;;;2.57;;
58727;SDS011;44505;43.240;0.070;2022-08-19T01:36:50;3.10;;;2.72;;
58727;SDS011;44505;43.240;0.070;2022-08-19T01:39:17;4.65;;;2.90;;
58727;SDS011;44505;43.240;0.070;2022-08-19T01:41:44;6.07;;;2.97;;
58727;SDS011;44505;43.240;0.070;2022-08-19T01:44:10;6.28;;;2.80;;
58727;SDS011;44505;43.240;0.070;2022-08-19T01:46:36;4.35;;;3.50;;
58727;SDS011;44505;43.240;0.070;2022-08-19T01:49:02;5.10;;;2.72;;
58727;SDS011;44505;43.240;0.070;2022-08-19T01:51:27;5.43;;;3.00;;
58727;SDS011;44505;43.240;0.070;2022-08-19T01:53:53;3.42;;;2.80;;
58727;SDS011;44505;43.240;0.070;2022-08-19T01:56:19;5.72;;;3.60;;
58727;SDS011;44505;43.240;0.070;2022-08-19T01:58:45;7.00;;;3.33;;
58727;SDS011;44505;43.240;0.070;2022-08-19T02:01:12;3.15;;;2.70;;
58727;SDS011;44505;43.240;0.070;2022-08-19T02:03:38;6.95;;;2.50;;
58727;SDS011;44505;43.240;0.070;2022-08-19T02:06:04;3.13;;;2.30;;
58727;SDS011;44505;43.240;0.070;2022-08-19T02:08:30;8.13;;;6.03;;
58727;SDS011;44505;43.240;0.070;2022-08-19T02:10:56;5.93;;;3.63;;
58727;SDS011;44505;43.240;0.070;2022-08-19T02:13:21;4.72;;;3.40;;
58727;SDS011;44505;43.240;0.070;2022-08-19T02:15:47;4.15;;;2.90;;
58727;SDS011;44505;43.240;0.070;2022-08-19T02:18:12;5.07;;;3.03;;
58727;SDS011;44505;43.240;0.070;2022-08-19T02:20:38;4.28;;;2.78;;
58727;SDS011;44505;43.240;0.070;2022-08-19T02:23:04;4.40;;;2.65;;
58727;SDS011;44505;43.240;0.070;2022-08-19T02:25:30;6.13;;;4.65;;
58727;SDS011;44505;43.240;0.070;2022-08-19T02:27:55;5.30;;;2.83;;
58727;SDS011;44505;43.240;0.070;2022-08-19T02:30:21;4.47;;;2.50;;
58727;SDS011;44505;43.240;0.070;2022-08-19T02:32:46;3.88;;;3.10;;
58727;SDS011;44505;43.240;0.070;2022-08-19T02:35:12;3.97;;;2.67;;
58727;SDS011;44505;43.240;0.070;2022-08-19T02:37:38;4.53;;;2.63;;
58727;SDS011;44505;43.240;0.070;2022-08-19T02:40:22;4.43;;;2.67;;
58727;SDS011;44505;43.240;0.070;2022-08-19T02:42:48;3.35;;;2.60;;
58727;SDS011;44505;43.240;0.070;2022-08-19T02:45:14;4.20;;;3.10;;
58727;SDS011;44505;43.240;0.070;2022-08-19T02:47:39;3.40;;;2.85;;
58727;SDS011;44505;43.240;0.070;2022-08-19T02:50:05;4.22;;;2.60;;
58727;SDS011;44505;43.240;0.070;2022-08-19T02:52:32;4.85;;;2.53;;
58727;SDS011;44505;43.240;0.070;2022-08-19T02:54:59;4.22;;;2.63;;
58727;SDS011;44505;43.240;0.070;2022-08-19T02:57:26;5.75;;;2.72;;
58727;SDS011;44505;43.240;0.070;2022-08-19T02:59:52;4.82;;;4.15;;
58727;SDS011;44505;43.240;0.070;2022-08-19T03:02:18;4.93;;;2.73;;
58727;SDS011;44505;43.240;0.070;2022-08-19T03:04:44;3.45;;;2.53;;
58727;SDS011;44505;43.240;0.070;2022-08-19T03:07:09;3.25;;;2.42;;
58727;SDS011;44505;43.240;0.070;2022-08-19T03:09:38;7.35;;;2.88;;
58727;SDS011;44505;43.240;0.070;2022-08-19T03:12:04;4.38;;;2.97;;
58727;SDS011;44505;43.240;0.070;2022-08-19T03:14:30;3.25;;;2.75;;
58727;SDS011;44505;43.240;0.070;2022-08-19T03:16:56;5.70;;;2.72;;
58727;SDS011;44505;43.240;0.070;2022-08-19T03:19:22;3.80;;;2.70;;
58727;SDS011;44505;43.240;0.070;2022-08-19T03:21:48;2.95;;;2.63;;
58727;SDS011;44505;43.240;0.070;2022-08-19T03:24:14;3.67;;;3.22;;
58727;SDS011;44505;43.240;0.070;2022-08-19T03:26:41;4.05;;;2.95;;
58727;SDS011;44505;43.240;0.070;2022-08-19T03:29:07;4.20;;;2.55;;
58727;SDS011;44505;43.240;0.070;2022-08-19T03:31:35;3.25;;;2.85;;
58727;SDS011;44505;43.240;0.070;2022-08-19T03:34:01;5.07;;;2.97;;
58727;SDS011;44505;43.240;0.070;2022-08-19T03:36:27;5.30;;;3.03;;
58727;SDS011;44505;43.240;0.070;2022-08-19T03:38:54;4.53;;;3.08;;
58727;SDS011;44505;43.240;0.070;2022-08-19T03:41:23;4.45;;;3.63;;
58727;SDS011;44505;43.240;0.070;2022-08-19T03:43:49;5.40;;;2.90;;
58727;SDS011;44505;43.240;0.070;2022-08-19T03:46:16;4.85;;;2.78;;
58727;SDS011;44505;43.240;0.070;2022-08-19T03:48:42;5.45;;;3.05;;
58727;SDS011;44505;43.240;0.070;2022-08-19T03:51:08;4.25;;;3.10;;
58727;SDS011;44505;43.240;0.070;2022-08-19T03:53:40;5.70;;;3.45;;
58727;SDS011;44505;43.240;0.070;2022-08-19T03:56:07;2.92;;;2.63;;
58727;SDS011;44505;43.240;0.070;2022-08-19T03:58:33;3.40;;;2.47;;
58727;SDS011;44505;43.240;0.070;2022-08-19T04:00:58;4.93;;;3.08;;
58727;SDS011;44505;43.240;0.070;2022-08-19T04:03:24;3.25;;;2.60;;
58727;SDS011;44505;43.240;0.070;2022-08-19T04:05:50;6.80;;;3.28;;
58727;SDS011;44505;43.240;0.070;2022-08-19T04:08:15;4.10;;;2.78;;
58727;SDS011;44505;43.240;0.070;2022-08-19T04:10:44;7.45;;;2.92;;
58727;SDS011;44505;43.240;0.070;2022-08-19T04:13:09;4.18;;;2.65;;
58727;SDS011;44505;43.240;0.070;2022-08-19T04:15:38;5.47;;;2.63;;
58727;SDS011;44505;43.240;0.070;2022-08-19T04:18:06;3.78;;;2.63;;
58727;SDS011;44505;43.240;0.070;2022-08-19T04:20:33;4.50;;;3.13;;
58727;SDS011;44505;43.240;0.070;2022-08-19T04:22:58;6.15;;;3.15;;
58727;SDS011;44505;43.240;0.070;2022-08-19T04:25:23;4.68;;;2.97;;
58727;SDS011;44505;43.240;0.070;2022-08-19T04:27:49;4.20;;;3.13;;
58727;SDS011;44505;43.240;0.070;2022-08-19T04:30:14;5.40;;;2.80;;
58727;SDS011;44505;43.240;0.070;2022-08-19T04:32:40;5.25;;;2.67;;
58727;SDS011;44505;43.240;0.070;2022-08-19T04:35:08;7.05;;;4.53;;
58727;SDS011;44505;43.240;0.070;2022-08-19T04:37:34;4.68;;;3.65;;
58727;SDS011;44505;43.240;0.070;2022-08-19T04:39:59;4.57;;;3.47;;
58727;SDS011;44505;43.240;0.070;2022-08-19T04:42:43;3.60;;;3.13;;
58727;SDS011;44505;43.240;0.070;2022-08-19T04:45:10;7.82;;;3.50;;
58727;SDS011;44505;43.240;0.070;2022-08-19T04:47:36;6.40;;;3.60;;
58727;SDS011;44505;43.240;0.070;2022-08-19T04:50:02;5.22;;;4.13;;
58727;SDS011;44505;43.240;0.070;2022-08-19T04:52:28;4.40;;;2.90;;
58727;SDS011;44505;43.240;0.070;2022-08-19T04:54:56;4.60;;;2.67;;
58727;SDS011;44505;43.240;0.070;2022-08-19T04:57:21;3.10;;;2.50;;
58727;SDS011;44505;43.240;0.070;2022-08-19T04:59:47;4.43;;;2.70;;
58727;SDS011;44505;43.240;0.070;2022-08-19T05:02:12;5.30;;;2.80;;
58727;SDS011;44505;43.240;0.070;2022-08-19T05:04:37;4.32;;;2.92;;
58727;SDS011;44505;43.240;0.070;2022-08-19T05:07:04;5.18;;;2.53;;
58727;SDS011;44505;43.240;0.070;2022-08-19T05:09:30;4.38;;;2.80;;
58727;SDS011;44505;43.240;0.070;2022-08-19T05:11:55;3.47;;;2.80;;
58727;SDS011;44505;43.240;0.070;2022-08-19T05:14:20;4.22;;;2.80;;
58727;SDS011;44505;43.240;0.070;2022-08-19T05:16:46;4.97;;;3.20;;
58727;SDS011;44505;43.240;0.070;2022-08-19T05:19:12;4.53;;;2.88;;
58727;SDS011;44505;43.240;0.070;2022-08-19T05:21:56;5.28;;;3.00;;
58727;SDS011;44505;43.240;0.070;2022-08-19T05:24:40;2.97;;;2.60;;
58727;SDS011;44505;43.240;0.070;2022-08-19T05:27:06;4.43;;;4.03;;
58727;SDS011;44505;43.240;0.070;2022-08-19T05:29:32;4.70;;;4.13;;
58727;SDS011;44505;43.240;0.070;2022-08-19T05:31:59;4.57;;;3.35;;
58727;SDS011;44505;43.240;0.070;2022-08-19T05:34:25;3.85;;;3.03;;
58727;SDS011;44505;43.240;0.070;2022-08-19T05:36:52;3.70;;;2.30;;
58727;SDS011;44505;43.240;0.070;2022-08-19T05:39:22;5.25;;;2.92;;
58727;SDS011;44505;43.240;0.070;2022-08-19T05:41:50;4.88;;;3.08;;
58727;SDS011;44505;43.240;0.070;2022-08-19T05:44:16;8.75;;;3.03;;
58727;SDS011;44505;43.240;0.070;2022-08-19T05:46:45;9.50;;;4.40;;
58727;SDS011;44505;43.240;0.070;2022-08-19T05:49:14;4.78;;;4.30;;
58727;SDS011;44505;43.240;0.070;2022-08-19T05:51:40;29.50;;;17.73;;
58727;SDS011;44505;43.240;0.070;2022-08-19T05:54:06;12.70;;;8.20;;
58727;SDS011;44505;43.240;0.070;2022-08-19T05:56:32;8.50;;;6.78;;
58727;SDS011;44505;43.240;0.070;2022-08-19T05:58:58;7.72;;;5.20;;
58727;SDS011;44505;43.240;0.070;2022-08-19T06:01:24;6.65;;;4.28;;
58727;SDS011;44505;43.240;0.070;2022-08-19T06:03:49;5.32;;;4.82;;
58727;SDS011;44505;43.240;0.070;2022-08-19T06:06:15;5.55;;;3.30;;
58727;SDS011;44505;43.240;0.070;2022-08-19T06:08:42;4.10;;;2.90;;
58727;SDS011;44505;43.240;0.070;2022-08-19T06:13:40;6.07;;;3.22;;
58727;SDS011;44505;43.240;0.070;2022-08-19T06:16:05;4.45;;;3.15;;
58727;SDS011;44505;43.240;0.070;2022-08-19T06:18:31;5.22;;;3.58;;
58727;SDS011;44505;43.240;0.070;2022-08-19T06:20:58;4.03;;;3.00;;
58727;SDS011;44505;43.240;0.070;2022-08-19T06:23:23;4.25;;;3.85;;
58727;SDS011;44505;43.240;0.070;2022-08-19T06:25:49;5.72;;;3.60;;
58727;SDS011;44505;43.240;0.070;2022-08-19T06:28:14;6.93;;;3.40;;
58727;SDS011;44505;43.240;0.070;2022-08-19T06:30:40;6.72;;;4.32;;
58727;SDS011;44505;43.240;0.070;2022-08-19T06:33:05;6.47;;;4.13;;
58727;SDS011;44505;43.240;0.070;2022-08-19T06:35:30;4.85;;;4.20;;
58727;SDS011;44505;43.240;0.070;2022-08-19T06:37:56;4.32;;;3.10;;
58727;SDS011;44505;43.240;0.070;2022-08-19T06:40:21;6.43;;;3.58;;
58727;SDS011;44505;43.240;0.070;2022-08-19T06:42:47;9.38;;;4.47;;
58727;SDS011;44505;43.240;0.070;2022-08-19T06:45:13;7.10;;;4.50;;
58727;SDS011;44505;43.240;0.070;2022-08-19T06:47:39;7.35;;;3.72;;
58727;SDS011;44505;43.240;0.070;2022-08-19T06:50:05;5.30;;;3.20;;
58727;SDS011;44505;43.240;0.070;2022-08-19T06:52:34;5.50;;;3.78;;
58727;SDS011;44505;43.240;0.070;2022-08-19T06:55:00;6.57;;;4.55;;
58727;SDS011;44505;43.240;0.070;2022-08-19T06:57:26;6.40;;;4.43;;
58727;SDS011;44505;43.240;0.070;2022-08-19T06:59:52;6.65;;;3.70;;
58727;SDS011;44505;43.240;0.070;2022-08-19T07:02:18;4.53;;;3.97;;
58727;SDS011;44505;43.240;0.070;2022-08-19T07:04:43;5.40;;;4.07;;
58727;SDS011;44505;43.240;0.070;2022-08-19T07:07:10;5.43;;;3.20;;
58727;SDS011;44505;43.240;0.070;2022-08-19T07:09:38;4.13;;;2.80;;
58727;SDS011;44505;43.240;0.070;2022-08-19T07:12:05;3.70;;;2.30;;
58727;SDS011;44505;43.240;0.070;2022-08-19T07:14:31;3.72;;;2.13;;
58727;SDS011;44505;43.240;0.070;2022-08-19T07:16:57;4.13;;;2.40;;
58727;SDS011;44505;43.240;0.070;2022-08-19T07:19:23;3.38;;;1.98;;
58727;SDS011;44505;43.240;0.070;2022-08-19T07:21:51;4.30;;;2.05;;
58727;SDS011;44505;43.240;0.070;2022-08-19T07:24:18;2.22;;;2.03;;
58727;SDS011;44505;43.240;0.070;2022-08-19T07:26:44;2.05;;;1.70;;
58727;SDS011;44505;43.240;0.070;2022-08-19T07:29:11;3.50;;;1.95;;
58727;SDS011;44505;43.240;0.070;2022-08-19T07:31:36;3.30;;;2.45;;
58727;SDS011;44505;43.240;0.070;2022-08-19T07:34:05;3.17;;;2.00;;
58727;SDS011;44505;43.240;0.070;2022-08-19T07:36:37;2.22;;;1.60;;
58727;SDS011;44505;43.240;0.070;2022-08-19T07:39:04;2.10;;;1.90;;
58727;SDS011;44505;43.240;0.070;2022-08-19T07:41:31;2.95;;;1.73;;
58727;SDS011;44505;43.240;0.070;2022-08-19T07:43:57;2.92;;;2.28;;
58727;SDS011;44505;43.240;0.070;2022-08-19T07:46:23;3.25;;;1.85;;
58727;SDS011;44505;43.240;0.070;2022-08-19T07:48:49;2.85;;;2.00;;
58727;SDS011;44505;43.240;0.070;2022-08-19T07:51:16;3.97;;;2.40;;
58727;SDS011;44505;43.240;0.070;2022-08-19T07:53:42;4.57;;;2.45;;
58727;SDS011;44505;43.240;0.070;2022-08-19T07:56:09;3.22;;;1.92;;
58727;SDS011;44505;43.240;0.070;2022-08-19T07:58:37;3.00;;;1.97;;
58727;SDS011;44505;43.240;0.070;2022-08-19T08:01:03;1.73;;;1.60;;
58727;SDS011;44505;43.240;0.070;2022-08-19T08:03:29;2.58;;;2.00;;
58727;SDS011;44505;43.240;0.070;2022-08-19T08:06:13;2.53;;;2.33;;
58727;SDS011;44505;43.240;0.070;2022-08-19T08:08:58;1.95;;;1.77;;
58727;SDS011;44505;43.240;0.070;2022-08-19T08:11:43;2.78;;;2.22;;
58727;SDS011;44505;43.240;0.070;2022-08-19T08:14:14;2.20;;;1.83;;
58727;SDS011;44505;43.240;0.070;2022-08-19T08:16:40;3.60;;;1.42;;
58727;SDS011;44505;43.240;0.070;2022-08-19T08:19:07;3.20;;;1.38;;
58727;SDS011;44505;43.240;0.070;2022-08-19T08:21:33;1.33;;;1.23;;
58727;SDS011;44505;43.240;0.070;2022-08-19T08:23:58;1.77;;;1.35;;
58727;SDS011;44505;43.240;0.070;2022-08-19T08:26:24;1.27;;;1.17;;
58727;SDS011;44505;43.240;0.070;2022-08-19T08:28:50;1.27;;;1.17;;
58727;SDS011;44505;43.240;0.070;2022-08-19T08:31:15;2.03;;;1.13;;
58727;SDS011;44505;43.240;0.070;2022-08-19T08:33:41;1.50;;;1.40;;
58727;SDS011;44505;43.240;0.070;2022-08-19T08:36:07;3.33;;;1.50;;
58727;SDS011;44505;43.240;0.070;2022-08-19T08:38:33;1.63;;;1.50;;
58727;SDS011;44505;43.240;0.070;2022-08-19T08:41:05;2.05;;;1.33;;
58727;SDS011;44505;43.240;0.070;2022-08-19T08:43:38;1.30;;;1.20;;
58727;SDS011;44505;43.240;0.070;2022-08-19T08:46:10;1.33;;;1.10;;
58727;SDS011;44505;43.240;0.070;2022-08-19T08:48:48;2.15;;;1.05;;
58727;SDS011;44505;43.240;0.070;2022-08-19T08:53:41;1.15;;;0.95;;
58727;SDS011;44505;43.240;0.070;2022-08-19T08:56:08;1.35;;;1.20;;
58727;SDS011;44505;43.240;0.070;2022-08-19T09:01:38;1.23;;;1.10;;
58727;SDS011;44505;43.240;0.070;2022-08-19T09:04:05;1.40;;;1.27;;
58727;SDS011;44505;43.240;0.070;2022-08-19T09:14:45;2.25;;;1.08;;
58727;SDS011;44505;43.240;0.070;2022-08-19T09:17:11;0.90;;;0.90;;
58727;SDS011;44505;43.240;0.070;2022-08-19T09:19:51;1.27;;;1.17;;
58727;SDS011;44505;43.240;0.070;2022-08-19T09:22:18;2.20;;;0.85;;
58727;SDS011;44505;43.240;0.070;2022-08-19T09:24:45;0.88;;;0.88;;
58727;SDS011;44505;43.240;0.070;2022-08-19T09:27:11;0.70;;;0.70;;
58727;SDS011;44505;43.240;0.070;2022-08-19T09:29:37;0.93;;;0.70;;
58727;SDS011;44505;43.240;0.070;2022-08-19T09:32:03;1.70;;;0.90;;
58727;SDS011;44505;43.240;0.070;2022-08-19T09:34:29;0.85;;;0.85;;
58727;SDS011;44505;43.240;0.070;2022-08-19T09:36:54;2.53;;;2.22;;
58727;SDS011;44505;43.240;0.070;2022-08-19T09:39:20;1.10;;;1.00;;
58727;SDS011;44505;43.240;0.070;2022-08-19T09:41:46;0.82;;;0.82;;
58727;SDS011;44505;43.240;0.070;2022-08-19T09:44:12;1.17;;;0.90;;
58727;SDS011;44505;43.240;0.070;2022-08-19T09:46:38;1.13;;;0.90;;
58727;SDS011;44505;43.240;0.070;2022-08-19T09:49:03;1.30;;;1.20;;
58727;SDS011;44505;43.240;0.070;2022-08-19T09:51:31;1.48;;;1.02;;
58727;SDS011;44505;43.240;0.070;2022-08-19T09:53:58;1.30;;;1.15;;
58727;SDS011;44505;43.240;0.070;2022-08-19T09:56:24;1.20;;;1.10;;
58727;SDS011;44505;43.240;0.070;2022-08-19T09:58:49;2.65;;;1.52;;
58727;SDS011;44505;43.240;0.070;2022-08-19T10:01:23;2.75;;;1.45;;
58727;SDS011;44505;43.240;0.070;2022-08-19T10:03:49;1.77;;;1.20;;
58727;SDS011;44505;43.240;0.070;2022-08-19T10:06:16;2.38;;;1.42;;
58727;SDS011;44505;43.240;0.070;2022-08-19T10:08:42;3.50;;;1.70;;
58727;SDS011;44505;43.240;0.070;2022-08-19T10:11:07;4.30;;;1.30;;
58727;SDS011;44505;43.240;0.070;2022-08-19T10:13:34;1.83;;;1.20;;
58727;SDS011;44505;43.240;0.070;2022-08-19T10:16:12;1.00;;;0.90;;
58727;SDS011;44505;43.240;0.070;2022-08-19T10:18:38;1.00;;;0.95;;
58727;SDS011;44505;43.240;0.070;2022-08-19T10:21:05;2.97;;;1.50;;
58727;SDS011;44505;43.240;0.070;2022-08-19T10:23:33;1.42;;;1.10;;
58727;SDS011;44505;43.240;0.070;2022-08-19T10:26:02;1.58;;;0.95;;
58727;SDS011;44505;43.240;0.070;2022-08-19T10:28:29;2.95;;;1.98;;
58727;SDS011;44505;43.240;0.070;2022-08-19T10:30:54;1.75;;;1.30;;
58727;SDS011;44505;43.240;0.070;2022-08-19T10:33:20;3.10;;;1.40;;
58727;SDS011;44505;43.240;0.070;2022-08-19T10:35:45;1.48;;;1.00;;
58727;SDS011;44505;43.240;0.070;2022-08-19T10:38:11;1.20;;;1.10;;
58727;SDS011;44505;43.240;0.070;2022-08-19T10:40:37;2.33;;;1.40;;
58727;SDS011;44505;43.240;0.070;2022-08-19T10:43:02;1.40;;;1.30;;
58727;SDS011;44505;43.240;0.070;2022-08-19T10:45:28;2.42;;;1.50;;
58727;SDS011;44505;43.240;0.070;2022-08-19T10:47:53;1.30;;;1.20;;
58727;SDS011;44505;43.240;0.070;2022-08-19T10:50:19;1.30;;;1.20;;
58727;SDS011;44505;43.240;0.070;2022-08-19T10:53:03;1.67;;;1.42;;
58727;SDS011;44505;43.240;0.070;2022-08-19T10:55:30;1.67;;;1.52;;
58727;SDS011;44505;43.240;0.070;2022-08-19T10:58:14;2.47;;;1.45;;
58727;SDS011;44505;43.240;0.070;2022-08-19T11:00:40;2.67;;;1.50;;
58727;SDS011;44505;43.240;0.070;2022-08-19T11:03:06;1.23;;;1.13;;
58727;SDS011;44505;43.240;0.070;2022-08-19T11:05:31;1.10;;;1.00;;
58727;SDS011;44505;43.240;0.070;2022-08-19T11:07:57;1.50;;;1.27;;
58727;SDS011;44505;43.240;0.070;2022-08-19T11:10:22;2.00;;;1.17;;
58727;SDS011;44505;43.240;0.070;2022-08-19T11:12:48;4.45;;;1.40;;
58727;SDS011;44505;43.240;0.070;2022-08-19T11:15:19;1.45;;;1.35;;
58727;SDS011;44505;43.240;0.070;2022-08-19T11:17:44;1.98;;;1.40;;
58727;SDS011;44505;43.240;0.070;2022-08-19T11:20:13;2.25;;;1.63;;
58727;SDS011;44505;43.240;0.070;2022-08-19T11:22:39;1.98;;;1.13;;
58727;SDS011;44505;43.240;0.070;2022-08-19T11:25:05;1.20;;;1.10;;
58727;SDS011;44505;43.240;0.070;2022-08-19T11:27:30;1.30;;;1.20;;
58727;SDS011;44505;43.240;0.070;2022-08-19T11:29:56;2.40;;;1.45;;
58727;SDS011;44505;43.240;0.070;2022-08-19T11:32:21;1.88;;;1.27;;
58727;SDS011;44505;43.240;0.070;2022-08-19T11:34:47;1.98;;;1.10;;
58727;SDS011;44505;43.240;0.070;2022-08-19T11:37:12;2.63;;;1.40;;
58727;SDS011;44505;43.240;0.070;2022-08-19T11:39:38;1.55;;;1.42;;
58727;SDS011;44505;43.240;0.070;2022-08-19T11:42:04;1.60;;;1.50;;
58727;SDS011;44505;43.240;0.070;2022-08-19T11:44:50;1.10;;;1.10;;
58727;SDS011;44505;43.240;0.070;2022-08-19T11:47:16;1.40;;;1.00;;
58727;SDS011;44505;43.240;0.070;2022-08-19T11:49:41;1.40;;;1.30;;
58727;SDS011;44505;43.240;0.070;2022-08-19T11:52:07;1.63;;;1.20;;
58727;SDS011;44505;43.240;0.070;2022-08-19T11:54:32;2.33;;;1.40;;
58727;SDS011;44505;43.240;0.070;2022-08-19T11:56:58;1.27;;;1.17;;
58727;SDS011;44505;43.240;0.070;2022-08-19T11:59:23;2.03;;;1.25;;
58727;SDS011;44505;43.240;0.070;2022-08-19T12:01:49;1.85;;;1.27;;
58727;SDS011;44505;43.240;0.070;2022-08-19T12:04:14;1.67;;;1.52;;
58727;SDS011;44505;43.240;0.070;2022-08-19T12:06:40;1.92;;;1.30;;
58727;SDS011;44505;43.240;0.070;2022-08-19T12:09:06;3.05;;;1.20;;
58727;SDS011;44505;43.240;0.070;2022-08-19T12:11:34;1.20;;;1.10;;
58727;SDS011;44505;43.240;0.070;2022-08-19T12:14:03;1.13;;;1.05;;
58727;SDS011;44505;43.240;0.070;2022-08-19T12:16:29;2.35;;;1.30;;
58727;SDS011;44505;43.240;0.070;2022-08-19T12:18:56;1.15;;;1.05;;
58727;SDS011;44505;43.240;0.070;2022-08-19T12:21:24;1.30;;;1.20;;
58727;SDS011;44505;43.240;0.070;2022-08-19T12:23:54;1.58;;;1.40;;
58727;SDS011;44505;43.240;0.070;2022-08-19T12:26:20;1.00;;;1.00;;
58727;SDS011;44505;43.240;0.070;2022-08-19T12:28:45;1.85;;;1.05;;
58727;SDS011;44505;43.240;0.070;2022-08-19T12:31:12;1.17;;;1.10;;
58727;SDS011;44505;43.240;0.070;2022-08-19T12:33:38;2.30;;;1.20;;
58727;SDS011;44505;43.240;0.070;2022-08-19T12:36:04;1.92;;;1.50;;
58727;SDS011;44505;43.240;0.070;2022-08-19T12:38:30;3.10;;;1.35;;
58727;SDS011;44505;43.240;0.070;2022-08-19T12:40:57;3.83;;;1.40;;
58727;SDS011;44505;43.240;0.070;2022-08-19T12:43:23;1.15;;;1.05;;
58727;SDS011;44505;43.240;0.070;2022-08-19T12:45:48;1.65;;;1.13;;
58727;SDS011;44505;43.240;0.070;2022-08-19T12:48:13;1.13;;;1.00;;
58727;SDS011;44505;43.240;0.070;2022-08-19T12:50:40;1.00;;;1.00;;
58727;SDS011;44505;43.240;0.070;2022-08-19T12:53:05;1.40;;;1.02;;
58727;SDS011;44505;43.240;0.070;2022-08-19T12:55:31;2.03;;;1.30;;
58727;SDS011;44505;43.240;0.070;2022-08-19T12:57:56;1.27;;;1.00;;
58727;SDS011;44505;43.240;0.070;2022-08-19T13:00:22;2.97;;;1.30;;
58727;SDS011;44505;43.240;0.070;2022-08-19T13:02:50;1.23;;;1.13;;
58727;SDS011;44505;43.240;0.070;2022-08-19T13:05:17;1.65;;;1.10;;
58727;SDS011;44505;43.240;0.070;2022-08-19T13:07:45;1.05;;;0.98;;
58727;SDS011;44505;43.240;0.070;2022-08-19T13:10:12;1.55;;;1.20;;
58727;SDS011;44505;43.240;0.070;2022-08-19T13:12:40;1.30;;;1.20;;
58727;SDS011;44505;43.240;0.070;2022-08-19T13:15:06;1.60;;;1.00;;
58727;SDS011;44505;43.240;0.070;2022-08-19T13:17:33;1.85;;;1.00;;
58727;SDS011;44505;43.240;0.070;2022-08-19T13:19:58;1.10;;;1.00;;
58727;SDS011;44505;43.240;0.070;2022-08-19T13:22:24;1.30;;;1.20;;
58727;SDS011;44505;43.240;0.070;2022-08-19T13:24:49;1.13;;;1.02;;
58727;SDS011;44505;43.240;0.070;2022-08-19T13:27:15;1.05;;;0.95;;
58727;SDS011;44505;43.240;0.070;2022-08-19T13:29:41;1.92;;;1.10;;
58727;SDS011;44505;43.240;0.070;2022-08-19T13:32:24;1.10;;;1.10;;
58727;SDS011;44505;43.240;0.070;2022-08-19T13:35:08;1.10;;;1.00;;
58727;SDS011;44505;43.240;0.070;2022-08-19T13:37:34;2.05;;;1.20;;
58727;SDS011;44505;43.240;0.070;2022-08-19T13:40:11;1.15;;;1.05;;
58727;SDS011;44505;43.240;0.070;2022-08-19T13:42:38;1.25;;;0.88;;
58727;SDS011;44505;43.240;0.070;2022-08-19T13:45:03;1.88;;;1.10;;
58727;SDS011;44505;43.240;0.070;2022-08-19T13:47:31;1.05;;;1.05;;
58727;SDS011;44505;43.240;0.070;2022-08-19T13:49:57;1.33;;;1.23;;
58727;SDS011;44505;43.240;0.070;2022-08-19T13:52:22;1.40;;;1.00;;
58727;SDS011;44505;43.240;0.070;2022-08-19T13:54:47;1.55;;;1.33;;
58727;SDS011;44505;43.240;0.070;2022-08-19T13:57:13;2.53;;;1.20;;
58727;SDS011;44505;43.240;0.070;2022-08-19T13:59:39;1.23;;;1.08;;
58727;SDS011;44505;43.240;0.070;2022-08-19T14:02:04;1.30;;;1.20;;
58727;SDS011;44505;43.240;0.070;2022-08-19T14:04:30;1.00;;;1.00;;
58727;SDS011;44505;43.240;0.070;2022-08-19T14:06:55;1.73;;;1.23;;
58727;SDS011;44505;43.240;0.070;2022-08-19T14:09:21;1.70;;;1.10;;
58727;SDS011;44505;43.240;0.070;2022-08-19T14:11:46;1.52;;;1.33;;
58727;SDS011;44505;43.240;0.070;2022-08-19T14:14:12;1.58;;;1.25;;
58727;SDS011;44505;43.240;0.070;2022-08-19T14:16:37;1.10;;;1.10;;
58727;SDS011;44505;43.240;0.070;2022-08-19T14:19:02;1.58;;;1.20;;
58727;SDS011;44505;43.240;0.070;2022-08-19T14:21:28;1.20;;;1.08;;
58727;SDS011;44505;43.240;0.070;2022-08-19T14:23:53;1.85;;;1.33;;
58727;SDS011;44505;43.240;0.070;2022-08-19T14:26:19;1.10;;;1.10;;
58727;SDS011;44505;43.240;0.070;2022-08-19T14:28:46;1.38;;;1.27;;
58727;SDS011;44505;43.240;0.070;2022-08-19T14:31:12;1.17;;;1.08;;
58727;SDS011;44505;43.240;0.070;2022-08-19T14:33:39;1.23;;;1.13;;
58727;SDS011;44505;43.240;0.070;2022-08-19T14:36:05;1.25;;;0.90;;
58727;SDS011;44505;43.240;0.070;2022-08-19T14:38:31;1.02;;;1.02;;
58727;SDS011;44505;43.240;0.070;2022-08-19T14:41:10;1.48;;;1.05;;
58727;SDS011;44505;43.240;0.070;2022-08-19T14:43:36;1.05;;;1.00;;
58727;SDS011;44505;43.240;0.070;2022-08-19T14:46:01;1.58;;;1.13;;
58727;SDS011;44505;43.240;0.070;2022-08-19T14:48:27;1.38;;;1.17;;
58727;SDS011;44505;43.240;0.070;2022-08-19T14:50:52;2.00;;;1.25;;
58727;SDS011;44505;43.240;0.070;2022-08-19T14:53:18;26.00;;;2.90;;
58727;SDS011;44505;43.240;0.070;2022-08-19T14:55:43;12.57;;;2.58;;
58727;SDS011;44505;43.240;0.070;2022-08-19T14:58:09;1.60;;;1.20;;
58727;SDS011;44505;43.240;0.070;2022-08-19T15:00:35;1.65;;;1.20;;
58727;SDS011;44505;43.240;0.070;2022-08-19T15:03:00;2.28;;;1.30;;
58727;SDS011;44505;43.240;0.070;2022-08-19T15:05:26;1.33;;;1.10;;